sensor_id;sensor_type;location;lat;lon;timestamp;P1;durP1;ratioP1;P2;durP2;ratioP2
25365;SDS011;13315;48.274;-1.900;2023-03-23T00:01:12;16.13;;;5.22;;
25365;SDS011;13315;48.274;-1.900;2023-03-23T00:03:39;9.57;;;4.65;;
25365;SDS011;13315;48.274;-1.900;2023-03-23T00:06:06;10.13;;;4.43;;
25365;SDS011;13315;48.274;-1.900;2023-03-23T00:08:35;9.75;;;4.20;;
25365;SDS011;13315;48.274;-1.900;2023-03-23T00:11:20;7.63;;;4.50;;
25365;SDS011;13315;48.274;-1.900;2023-03-23T00:13:47;17.05;;;4.93;;
25365;SDS011;13315;48.274;-1.900;2023-03-23T00:16:16;9.73;;;4.25;;
25365;SDS011;13315;48.274;-1.900;2023-03-23T00:18:44;14.20;;;5.05;;
25365;SDS011;13315;48.274;-1.900;2023-03-23T00:21:10;17.95;;;5.20;;
25365;SDS011;13315;48.274;-1.900;2023-03-23T00:23:36;13.50;;;4.40;;
25365;SDS011;13315;48.274;-1.900;2023-03-23T00:26:03;12.73;;;4.18;;
25365;SDS011;13315;48.274;-1.900;2023-03-23T00:28:29;18.13;;;4.70;;
25365;SDS011;13315;48.274;-1.900;2023-03-23T00:31:00;12.13;;;4.28;;
25365;SDS011;13315;48.274;-1.900;2023-03-23T00:33:27;15.50;;;4.20;;
25365;SDS011;13315;48.274;-1.900;2023-03-23T00:35:54;13.63;;;4.50;;
25365;SDS011;13315;48.274;-1.900;2023-03-23T00:38:21;14.65;;;4.68;;
25365;SDS011;13315;48.274;-1.900;2023-03-23T00:40:47;12.73;;;4.43;;
25365;SDS011;13315;48.274;-1.900;2023-03-23T00:43:18;9.45;;;3.83;;
25365;SDS011;13315;48.274;-1.900;2023-03-23T00:45:45;14.13;;;4.10;;
25365;SDS011;13315;48.274;-1.900;2023-03-23T00:48:20;14.35;;;5.00;;
25365;SDS011;13315;48.274;-1.900;2023-03-23T00:50:47;11.80;;;3.90;;
25365;SDS011;13315;48.274;-1.900;2023-03-23T00:53:13;11.65;;;3.95;;
25365;SDS011;13315;48.274;-1.900;2023-03-23T00:55:40;15.18;;;4.28;;
25365;SDS011;13315;48.274;-1.900;2023-03-23T00:58:07;14.55;;;4.05;;
25365;SDS011;13315;48.274;-1.900;2023-03-23T01:00:34;11.45;;;3.80;;
25365;SDS011;13315;48.274;-1.900;2023-03-23T01:03:00;11.40;;;3.92;;
25365;SDS011;13315;48.274;-1.900;2023-03-23T01:05:26;10.63;;;4.15;;
25365;SDS011;13315;48.274;-1.900;2023-03-23T01:08:00;14.73;;;4.03;;
25365;SDS011;13315;48.274;-1.900;2023-03-23T01:10:27;11.40;;;4.68;;
25365;SDS011;13315;48.274;-1.900;2023-03-23T01:12:53;10.25;;;3.35;;
25365;SDS011;13315;48.274;-1.900;2023-03-23T01:15:20;8.35;;;3.70;;
25365;SDS011;13315;48.274;-1.900;2023-03-23T01:17:46;12.98;;;3.75;;
25365;SDS011;13315;48.274;-1.900;2023-03-23T01:20:13;10.05;;;3.78;;
25365;SDS011;13315;48.274;-1.900;2023-03-23T01:22:40;13.88;;;3.40;;
25365;SDS011;13315;48.274;-1.900;2023-03-23T01:25:06;8.90;;;4.32;;
25365;SDS011;13315;48.274;-1.900;2023-03-23T01:27:33;7.43;;;3.83;;
25365;SDS011;13315;48.274;-1.900;2023-03-23T01:29:59;14.15;;;4.80;;
25365;SDS011;13315;48.274;-1.900;2023-03-23T01:32:25;7.05;;;3.38;;
25365;SDS011;13315;48.274;-1.900;2023-03-23T01:34:52;9.60;;;3.45;;
25365;SDS011;13315;48.274;-1.900;2023-03-23T01:37:18;12.15;;;3.70;;
25365;SDS011;13315;48.274;-1.900;2023-03-23T01:39:45;8.10;;;3.40;;
25365;SDS011;13315;48.274;-1.900;2023-03-23T01:42:11;8.35;;;4.07;;
25365;SDS011;13315;48.274;-1.900;2023-03-23T01:47:03;12.15;;;4.15;;
25365;SDS011;13315;48.274;-1.900;2023-03-23T01:49:33;11.05;;;3.20;;
25365;SDS011;13315;48.274;-1.900;2023-03-23T01:52:02;16.30;;;3.45;;
25365;SDS011;13315;48.274;-1.900;2023-03-23T01:54:30;9.93;;;3.10;;
25365;SDS011;13315;48.274;-1.900;2023-03-23T01:56:58;8.68;;;3.50;;
25365;SDS011;13315;48.274;-1.900;2023-03-23T01:59:25;13.23;;;4.38;;
25365;SDS011;13315;48.274;-1.900;2023-03-23T02:01:53;5.97;;;3.42;;
25365;SDS011;13315;48.274;-1.900;2023-03-23T02:04:19;11.10;;;3.67;;
25365;SDS011;13315;48.274;-1.900;2023-03-23T02:06:46;13.60;;;3.75;;
25365;SDS011;13315;48.274;-1.900;2023-03-23T02:09:13;13.63;;;3.45;;
25365;SDS011;13315;48.274;-1.900;2023-03-23T02:11:42;11.00;;;3.47;;
25365;SDS011;13315;48.274;-1.900;2023-03-23T02:14:08;7.68;;;1.90;;
25365;SDS011;13315;48.274;-1.900;2023-03-23T02:22:05;11.30;;;3.97;;
25365;SDS011;13315;48.274;-1.900;2023-03-23T02:27:05;15.00;;;3.83;;
25365;SDS011;13315;48.274;-1.900;2023-03-23T02:34:45;9.57;;;4.05;;
25365;SDS011;13315;48.274;-1.900;2023-03-23T02:37:14;11.53;;;5.23;;
25365;SDS011;13315;48.274;-1.900;2023-03-23T02:39:45;16.55;;;4.30;;
25365;SDS011;13315;48.274;-1.900;2023-03-23T02:42:15;13.85;;;5.15;;
25365;SDS011;13315;48.274;-1.900;2023-03-23T02:44:43;9.85;;;4.57;;
25365;SDS011;13315;48.274;-1.900;2023-03-23T02:47:20;12.32;;;4.95;;
25365;SDS011;13315;48.274;-1.900;2023-03-23T02:49:49;8.77;;;4.43;;
25365;SDS011;13315;48.274;-1.900;2023-03-23T02:52:18;14.38;;;4.50;;
25365;SDS011;13315;48.274;-1.900;2023-03-23T02:54:46;12.55;;;4.43;;
25365;SDS011;13315;48.274;-1.900;2023-03-23T02:57:13;10.00;;;4.47;;
25365;SDS011;13315;48.274;-1.900;2023-03-23T02:59:39;11.23;;;4.50;;
25365;SDS011;13315;48.274;-1.900;2023-03-23T03:17:44;10.88;;;5.00;;
25365;SDS011;13315;48.274;-1.900;2023-03-23T03:20:12;8.45;;;5.10;;
25365;SDS011;13315;48.274;-1.900;2023-03-23T03:22:41;8.20;;;5.18;;
25365;SDS011;13315;48.274;-1.900;2023-03-23T03:25:09;8.27;;;4.93;;
25365;SDS011;13315;48.274;-1.900;2023-03-23T03:27:37;14.70;;;5.88;;
25365;SDS011;13315;48.274;-1.900;2023-03-23T03:30:06;13.00;;;5.50;;
25365;SDS011;13315;48.274;-1.900;2023-03-23T03:32:37;8.23;;;5.13;;
25365;SDS011;13315;48.274;-1.900;2023-03-23T03:35:04;13.02;;;5.15;;
25365;SDS011;13315;48.274;-1.900;2023-03-23T03:37:34;11.80;;;4.43;;
25365;SDS011;13315;48.274;-1.900;2023-03-23T03:40:03;9.77;;;4.68;;
25365;SDS011;13315;48.274;-1.900;2023-03-23T03:42:35;15.55;;;4.93;;
25365;SDS011;13315;48.274;-1.900;2023-03-23T03:45:01;12.23;;;4.90;;
25365;SDS011;13315;48.274;-1.900;2023-03-23T03:47:28;11.68;;;5.72;;
25365;SDS011;13315;48.274;-1.900;2023-03-23T03:49:54;14.48;;;5.78;;
25365;SDS011;13315;48.274;-1.900;2023-03-23T03:52:20;15.65;;;5.20;;
25365;SDS011;13315;48.274;-1.900;2023-03-23T03:54:46;13.93;;;5.60;;
25365;SDS011;13315;48.274;-1.900;2023-03-23T03:57:12;11.75;;;5.72;;
25365;SDS011;13315;48.274;-1.900;2023-03-23T03:59:38;10.90;;;5.45;;
25365;SDS011;13315;48.274;-1.900;2023-03-23T04:02:05;9.27;;;5.80;;
25365;SDS011;13315;48.274;-1.900;2023-03-23T04:04:32;10.00;;;6.80;;
25365;SDS011;13315;48.274;-1.900;2023-03-23T04:06:58;13.85;;;6.97;;
25365;SDS011;13315;48.274;-1.900;2023-03-23T04:09:24;20.60;;;6.25;;
25365;SDS011;13315;48.274;-1.900;2023-03-23T04:11:52;11.53;;;6.27;;
25365;SDS011;13315;48.274;-1.900;2023-03-23T04:14:18;13.43;;;6.72;;
25365;SDS011;13315;48.274;-1.900;2023-03-23T04:16:44;8.65;;;5.60;;
25365;SDS011;13315;48.274;-1.900;2023-03-23T04:19:10;11.30;;;6.40;;
25365;SDS011;13315;48.274;-1.900;2023-03-23T04:21:37;11.95;;;5.90;;
25365;SDS011;13315;48.274;-1.900;2023-03-23T04:24:03;13.20;;;7.68;;
25365;SDS011;13315;48.274;-1.900;2023-03-23T04:26:29;11.32;;;6.47;;
25365;SDS011;13315;48.274;-1.900;2023-03-23T04:28:55;11.98;;;7.05;;
25365;SDS011;13315;48.274;-1.900;2023-03-23T04:31:23;10.30;;;6.40;;
25365;SDS011;13315;48.274;-1.900;2023-03-23T04:33:50;7.05;;;5.53;;
25365;SDS011;13315;48.274;-1.900;2023-03-23T04:36:20;12.90;;;6.30;;
25365;SDS011;13315;48.274;-1.900;2023-03-23T04:38:47;10.07;;;6.32;;
25365;SDS011;13315;48.274;-1.900;2023-03-23T04:41:15;9.63;;;6.07;;
25365;SDS011;13315;48.274;-1.900;2023-03-23T04:43:41;10.75;;;5.20;;
25365;SDS011;13315;48.274;-1.900;2023-03-23T04:46:07;13.57;;;5.93;;
25365;SDS011;13315;48.274;-1.900;2023-03-23T04:48:34;14.45;;;6.32;;
25365;SDS011;13315;48.274;-1.900;2023-03-23T04:51:03;9.13;;;6.28;;
25365;SDS011;13315;48.274;-1.900;2023-03-23T04:53:30;9.50;;;6.38;;
25365;SDS011;13315;48.274;-1.900;2023-03-23T04:55:56;7.00;;;6.28;;
25365;SDS011;13315;48.274;-1.900;2023-03-23T04:58:23;10.02;;;7.10;;
25365;SDS011;13315;48.274;-1.900;2023-03-23T05:00:50;9.48;;;6.53;;
25365;SDS011;13315;48.274;-1.900;2023-03-23T05:03:17;13.45;;;6.70;;
25365;SDS011;13315;48.274;-1.900;2023-03-23T05:05:44;13.10;;;6.55;;
25365;SDS011;13315;48.274;-1.900;2023-03-23T05:08:20;7.07;;;5.88;;
25365;SDS011;13315;48.274;-1.900;2023-03-23T05:10:53;8.77;;;6.60;;
25365;SDS011;13315;48.274;-1.900;2023-03-23T05:13:19;10.35;;;6.25;;
25365;SDS011;13315;48.274;-1.900;2023-03-23T05:15:46;10.18;;;6.70;;
25365;SDS011;13315;48.274;-1.900;2023-03-23T05:18:12;8.63;;;6.57;;
25365;SDS011;13315;48.274;-1.900;2023-03-23T05:20:39;9.23;;;6.72;;
25365;SDS011;13315;48.274;-1.900;2023-03-23T05:23:06;16.25;;;6.85;;
25365;SDS011;13315;48.274;-1.900;2023-03-23T05:25:33;13.20;;;7.15;;
25365;SDS011;13315;48.274;-1.900;2023-03-23T05:28:05;12.23;;;7.57;;
25365;SDS011;13315;48.274;-1.900;2023-03-23T05:30:31;11.35;;;6.78;;
25365;SDS011;13315;48.274;-1.900;2023-03-23T05:32:57;13.07;;;7.45;;
25365;SDS011;13315;48.274;-1.900;2023-03-23T05:35:24;17.13;;;7.72;;
25365;SDS011;13315;48.274;-1.900;2023-03-23T05:37:52;15.07;;;7.22;;
25365;SDS011;13315;48.274;-1.900;2023-03-23T05:40:18;16.77;;;7.20;;
25365;SDS011;13315;48.274;-1.900;2023-03-23T05:42:45;16.70;;;6.88;;
25365;SDS011;13315;48.274;-1.900;2023-03-23T05:45:12;15.63;;;7.03;;
25365;SDS011;13315;48.274;-1.900;2023-03-23T05:47:38;10.13;;;6.35;;
25365;SDS011;13315;48.274;-1.900;2023-03-23T05:50:06;18.60;;;8.02;;
25365;SDS011;13315;48.274;-1.900;2023-03-23T05:52:34;9.05;;;6.22;;
25365;SDS011;13315;48.274;-1.900;2023-03-23T05:55:00;19.58;;;6.47;;
25365;SDS011;13315;48.274;-1.900;2023-03-23T05:57:28;14.57;;;6.97;;
25365;SDS011;13315;48.274;-1.900;2023-03-23T05:59:54;13.32;;;7.60;;
25365;SDS011;13315;48.274;-1.900;2023-03-23T06:02:22;20.90;;;7.60;;
25365;SDS011;13315;48.274;-1.900;2023-03-23T06:04:49;18.42;;;7.22;;
25365;SDS011;13315;48.274;-1.900;2023-03-23T06:07:15;24.52;;;7.95;;
25365;SDS011;13315;48.274;-1.900;2023-03-23T06:09:41;20.40;;;7.32;;
25365;SDS011;13315;48.274;-1.900;2023-03-23T06:12:08;30.80;;;7.57;;
25365;SDS011;13315;48.274;-1.900;2023-03-23T06:14:35;24.73;;;6.32;;
25365;SDS011;13315;48.274;-1.900;2023-03-23T06:17:02;21.27;;;7.22;;
25365;SDS011;13315;48.274;-1.900;2023-03-23T06:19:28;25.90;;;7.20;;
25365;SDS011;13315;48.274;-1.900;2023-03-23T06:21:54;27.33;;;6.60;;
25365;SDS011;13315;48.274;-1.900;2023-03-23T06:24:20;21.30;;;6.80;;
25365;SDS011;13315;48.274;-1.900;2023-03-23T06:26:46;22.65;;;6.28;;
25365;SDS011;13315;48.274;-1.900;2023-03-23T06:29:13;21.00;;;5.90;;
25365;SDS011;13315;48.274;-1.900;2023-03-23T06:31:40;14.00;;;5.90;;
25365;SDS011;13315;48.274;-1.900;2023-03-23T06:34:07;19.25;;;6.85;;
25365;SDS011;13315;48.274;-1.900;2023-03-23T06:36:34;14.63;;;5.70;;
25365;SDS011;13315;48.274;-1.900;2023-03-23T06:39:01;17.00;;;6.13;;
25365;SDS011;13315;48.274;-1.900;2023-03-23T06:41:29;25.52;;;7.40;;
25365;SDS011;13315;48.274;-1.900;2023-03-23T06:43:55;12.73;;;5.85;;
25365;SDS011;13315;48.274;-1.900;2023-03-23T06:46:21;27.38;;;7.18;;
25365;SDS011;13315;48.274;-1.900;2023-03-23T06:48:48;14.60;;;6.18;;
25365;SDS011;13315;48.274;-1.900;2023-03-23T06:53:42;15.43;;;7.00;;
25365;SDS011;13315;48.274;-1.900;2023-03-23T06:56:09;18.52;;;7.13;;
25365;SDS011;13315;48.274;-1.900;2023-03-23T06:58:36;18.17;;;6.40;;
25365;SDS011;13315;48.274;-1.900;2023-03-23T07:01:02;17.83;;;6.40;;
25365;SDS011;13315;48.274;-1.900;2023-03-23T07:03:29;19.80;;;6.90;;
25365;SDS011;13315;48.274;-1.900;2023-03-23T07:05:56;14.75;;;6.25;;
25365;SDS011;13315;48.274;-1.900;2023-03-23T07:08:23;20.00;;;7.05;;
25365;SDS011;13315;48.274;-1.900;2023-03-23T07:10:54;22.20;;;7.80;;
25365;SDS011;13315;48.274;-1.900;2023-03-23T07:13:21;18.17;;;7.20;;
25365;SDS011;13315;48.274;-1.900;2023-03-23T07:15:47;12.00;;;6.50;;
25365;SDS011;13315;48.274;-1.900;2023-03-23T07:18:14;23.77;;;7.85;;
25365;SDS011;13315;48.274;-1.900;2023-03-23T07:20:41;15.15;;;6.40;;
25365;SDS011;13315;48.274;-1.900;2023-03-23T07:23:07;24.10;;;6.38;;
25365;SDS011;13315;48.274;-1.900;2023-03-23T07:25:34;19.25;;;5.57;;
25365;SDS011;13315;48.274;-1.900;2023-03-23T07:28:00;15.65;;;5.35;;
25365;SDS011;13315;48.274;-1.900;2023-03-23T07:30:27;21.58;;;6.13;;
25365;SDS011;13315;48.274;-1.900;2023-03-23T07:32:54;23.17;;;5.80;;
25365;SDS011;13315;48.274;-1.900;2023-03-23T07:35:21;16.92;;;5.22;;
25365;SDS011;13315;48.274;-1.900;2023-03-23T07:37:47;17.52;;;6.18;;
25365;SDS011;13315;48.274;-1.900;2023-03-23T07:40:17;15.80;;;5.75;;
25365;SDS011;13315;48.274;-1.900;2023-03-23T07:42:51;14.82;;;5.90;;
25365;SDS011;13315;48.274;-1.900;2023-03-23T07:45:17;17.02;;;5.63;;
25365;SDS011;13315;48.274;-1.900;2023-03-23T07:47:43;17.30;;;4.63;;
25365;SDS011;13315;48.274;-1.900;2023-03-23T07:50:10;17.17;;;5.75;;
25365;SDS011;13315;48.274;-1.900;2023-03-23T07:52:37;15.57;;;4.85;;
25365;SDS011;13315;48.274;-1.900;2023-03-23T07:55:04;18.13;;;4.57;;
25365;SDS011;13315;48.274;-1.900;2023-03-23T07:57:31;14.93;;;4.60;;
25365;SDS011;13315;48.274;-1.900;2023-03-23T07:59:58;20.55;;;4.80;;
25365;SDS011;13315;48.274;-1.900;2023-03-23T08:02:24;20.33;;;5.20;;
25365;SDS011;13315;48.274;-1.900;2023-03-23T08:04:51;14.98;;;5.38;;
25365;SDS011;13315;48.274;-1.900;2023-03-23T08:07:19;15.57;;;5.22;;
25365;SDS011;13315;48.274;-1.900;2023-03-23T08:09:45;12.38;;;4.32;;
25365;SDS011;13315;48.274;-1.900;2023-03-23T08:12:12;16.70;;;4.20;;
25365;SDS011;13315;48.274;-1.900;2023-03-23T08:14:38;28.17;;;5.00;;
25365;SDS011;13315;48.274;-1.900;2023-03-23T08:17:06;27.20;;;5.30;;
25365;SDS011;13315;48.274;-1.900;2023-03-23T08:19:34;21.17;;;4.72;;
25365;SDS011;13315;48.274;-1.900;2023-03-23T08:22:04;8.87;;;3.80;;
25365;SDS011;13315;48.274;-1.900;2023-03-23T08:24:31;24.05;;;4.65;;
25365;SDS011;13315;48.274;-1.900;2023-03-23T08:26:58;13.90;;;4.20;;
25365;SDS011;13315;48.274;-1.900;2023-03-23T08:29:24;16.17;;;4.25;;
25365;SDS011;13315;48.274;-1.900;2023-03-23T08:31:50;18.88;;;4.70;;
25365;SDS011;13315;48.274;-1.900;2023-03-23T08:34:16;22.25;;;5.35;;
25365;SDS011;13315;48.274;-1.900;2023-03-23T08:36:42;21.35;;;4.72;;
25365;SDS011;13315;48.274;-1.900;2023-03-23T08:39:12;13.55;;;4.07;;
25365;SDS011;13315;48.274;-1.900;2023-03-23T08:41:39;15.35;;;4.55;;
25365;SDS011;13315;48.274;-1.900;2023-03-23T08:44:05;22.48;;;5.40;;
25365;SDS011;13315;48.274;-1.900;2023-03-23T08:46:33;13.07;;;3.85;;
25365;SDS011;13315;48.274;-1.900;2023-03-23T08:49:00;16.23;;;4.70;;
25365;SDS011;13315;48.274;-1.900;2023-03-23T08:51:26;20.08;;;4.13;;
25365;SDS011;13315;48.274;-1.900;2023-03-23T08:53:52;11.55;;;3.22;;
25365;SDS011;13315;48.274;-1.900;2023-03-23T08:56:19;16.40;;;3.45;;
25365;SDS011;13315;48.274;-1.900;2023-03-23T08:58:45;15.80;;;4.03;;
25365;SDS011;13315;48.274;-1.900;2023-03-23T09:01:12;16.45;;;3.58;;
25365;SDS011;13315;48.274;-1.900;2023-03-23T09:03:38;12.55;;;3.78;;
25365;SDS011;13315;48.274;-1.900;2023-03-23T09:06:06;17.95;;;4.45;;
25365;SDS011;13315;48.274;-1.900;2023-03-23T09:08:32;18.33;;;4.72;;
25365;SDS011;13315;48.274;-1.900;2023-03-23T09:11:03;20.60;;;4.32;;
25365;SDS011;13315;48.274;-1.900;2023-03-23T09:13:29;14.10;;;4.18;;
25365;SDS011;13315;48.274;-1.900;2023-03-23T09:15:56;13.35;;;3.88;;
25365;SDS011;13315;48.274;-1.900;2023-03-23T09:18:22;15.02;;;3.67;;
25365;SDS011;13315;48.274;-1.900;2023-03-23T09:20:50;13.50;;;3.58;;
25365;SDS011;13315;48.274;-1.900;2023-03-23T09:23:16;12.55;;;3.45;;
25365;SDS011;13315;48.274;-1.900;2023-03-23T09:25:42;18.02;;;4.43;;
25365;SDS011;13315;48.274;-1.900;2023-03-23T09:28:08;20.52;;;4.38;;
25365;SDS011;13315;48.274;-1.900;2023-03-23T09:30:35;22.95;;;4.80;;
25365;SDS011;13315;48.274;-1.900;2023-03-23T09:33:03;13.82;;;4.28;;
25365;SDS011;13315;48.274;-1.900;2023-03-23T09:35:29;15.55;;;4.10;;
25365;SDS011;13315;48.274;-1.900;2023-03-23T09:37:57;18.08;;;4.43;;
25365;SDS011;13315;48.274;-1.900;2023-03-23T09:40:28;9.88;;;3.63;;
25365;SDS011;13315;48.274;-1.900;2023-03-23T09:50:48;12.27;;;3.60;;
25365;SDS011;13315;48.274;-1.900;2023-03-23T09:53:18;10.85;;;3.47;;
25365;SDS011;13315;48.274;-1.900;2023-03-23T09:55:45;13.50;;;3.17;;
25365;SDS011;13315;48.274;-1.900;2023-03-23T10:01:06;16.52;;;3.28;;
25365;SDS011;13315;48.274;-1.900;2023-03-23T10:03:38;10.15;;;3.30;;
25365;SDS011;13315;48.274;-1.900;2023-03-23T10:06:07;11.77;;;3.67;;
25365;SDS011;13315;48.274;-1.900;2023-03-23T10:08:35;6.45;;;2.55;;
25365;SDS011;13315;48.274;-1.900;2023-03-23T10:11:02;16.48;;;3.58;;
25365;SDS011;13315;48.274;-1.900;2023-03-23T10:13:33;9.43;;;3.08;;
25365;SDS011;13315;48.274;-1.900;2023-03-23T10:16:02;9.27;;;3.08;;
25365;SDS011;13315;48.274;-1.900;2023-03-23T10:21:00;8.07;;;3.45;;
25365;SDS011;13315;48.274;-1.900;2023-03-23T10:26:28;8.75;;;3.08;;
25365;SDS011;13315;48.274;-1.900;2023-03-23T10:28:58;9.52;;;2.65;;
25365;SDS011;13315;48.274;-1.900;2023-03-23T10:31:30;10.20;;;2.88;;
25365;SDS011;13315;48.274;-1.900;2023-03-23T10:34:05;13.07;;;2.58;;
25365;SDS011;13315;48.274;-1.900;2023-03-23T10:36:35;11.52;;;2.70;;
25365;SDS011;13315;48.274;-1.900;2023-03-23T10:41:28;9.88;;;2.92;;
25365;SDS011;13315;48.274;-1.900;2023-03-23T10:43:56;8.38;;;2.80;;
25365;SDS011;13315;48.274;-1.900;2023-03-23T10:48:48;10.10;;;3.13;;
25365;SDS011;13315;48.274;-1.900;2023-03-23T10:51:16;8.27;;;3.28;;
25365;SDS011;13315;48.274;-1.900;2023-03-23T10:53:44;11.60;;;3.00;;
25365;SDS011;13315;48.274;-1.900;2023-03-23T10:56:25;13.95;;;2.90;;
25365;SDS011;13315;48.274;-1.900;2023-03-23T10:58:52;10.27;;;3.03;;
25365;SDS011;13315;48.274;-1.900;2023-03-23T11:01:19;11.68;;;2.70;;
25365;SDS011;13315;48.274;-1.900;2023-03-23T11:03:47;8.68;;;2.63;;
25365;SDS011;13315;48.274;-1.900;2023-03-23T11:06:20;12.82;;;2.83;;
25365;SDS011;13315;48.274;-1.900;2023-03-23T11:08:48;8.60;;;3.22;;
25365;SDS011;13315;48.274;-1.900;2023-03-23T11:11:16;18.35;;;3.75;;
25365;SDS011;13315;48.274;-1.900;2023-03-23T11:13:44;9.38;;;3.33;;
25365;SDS011;13315;48.274;-1.900;2023-03-23T11:16:21;11.88;;;3.92;;
25365;SDS011;13315;48.274;-1.900;2023-03-23T11:18:47;12.15;;;4.03;;
25365;SDS011;13315;48.274;-1.900;2023-03-23T11:21:14;10.77;;;4.38;;
25365;SDS011;13315;48.274;-1.900;2023-03-23T11:23:42;13.38;;;5.00;;
25365;SDS011;13315;48.274;-1.900;2023-03-23T11:26:11;6.00;;;3.50;;
25365;SDS011;13315;48.274;-1.900;2023-03-23T11:29:02;7.15;;;3.67;;
25365;SDS011;13315;48.274;-1.900;2023-03-23T11:31:30;11.30;;;3.80;;
25365;SDS011;13315;48.274;-1.900;2023-03-23T11:33:58;8.43;;;4.22;;
25365;SDS011;13315;48.274;-1.900;2023-03-23T11:36:33;7.72;;;3.38;;
25365;SDS011;13315;48.274;-1.900;2023-03-23T11:38:59;14.73;;;4.68;;
25365;SDS011;13315;48.274;-1.900;2023-03-23T11:41:31;11.70;;;4.07;;
25365;SDS011;13315;48.274;-1.900;2023-03-23T11:43:57;13.07;;;4.57;;
25365;SDS011;13315;48.274;-1.900;2023-03-23T11:54:07;15.82;;;5.15;;
25365;SDS011;13315;48.274;-1.900;2023-03-23T11:56:37;22.92;;;5.18;;
25365;SDS011;13315;48.274;-1.900;2023-03-23T11:59:09;17.15;;;5.05;;
25365;SDS011;13315;48.274;-1.900;2023-03-23T12:01:41;15.82;;;4.18;;
25365;SDS011;13315;48.274;-1.900;2023-03-23T12:04:18;14.88;;;5.00;;
25365;SDS011;13315;48.274;-1.900;2023-03-23T12:09:28;20.70;;;4.47;;
25365;SDS011;13315;48.274;-1.900;2023-03-23T12:12:23;16.30;;;4.30;;
25365;SDS011;13315;48.274;-1.900;2023-03-23T12:22:45;9.95;;;3.28;;
25365;SDS011;13315;48.274;-1.900;2023-03-23T12:25:38;16.80;;;3.90;;
25365;SDS011;13315;48.274;-1.900;2023-03-23T12:28:26;21.23;;;3.80;;
25365;SDS011;13315;48.274;-1.900;2023-03-23T12:43:20;19.23;;;3.20;;
25365;SDS011;13315;48.274;-1.900;2023-03-23T12:48:23;16.08;;;3.78;;
25365;SDS011;13315;48.274;-1.900;2023-03-23T12:53:37;20.08;;;3.78;;
25365;SDS011;13315;48.274;-1.900;2023-03-23T12:56:17;14.32;;;3.70;;
25365;SDS011;13315;48.274;-1.900;2023-03-23T12:58:46;17.10;;;3.50;;
25365;SDS011;13315;48.274;-1.900;2023-03-23T13:01:23;18.40;;;3.47;;
25365;SDS011;13315;48.274;-1.900;2023-03-23T13:03:57;12.10;;;3.67;;
25365;SDS011;13315;48.274;-1.900;2023-03-23T13:11:18;14.68;;;4.05;;
25365;SDS011;13315;48.274;-1.900;2023-03-23T13:18:57;12.65;;;3.45;;
25365;SDS011;13315;48.274;-1.900;2023-03-23T13:21:34;19.45;;;4.10;;
25365;SDS011;13315;48.274;-1.900;2023-03-23T13:24:03;11.68;;;3.40;;
25365;SDS011;13315;48.274;-1.900;2023-03-23T13:26:30;15.77;;;3.50;;
25365;SDS011;13315;48.274;-1.900;2023-03-23T13:28:58;19.55;;;3.35;;
25365;SDS011;13315;48.274;-1.900;2023-03-23T13:31:28;21.67;;;4.45;;
25365;SDS011;13315;48.274;-1.900;2023-03-23T13:36:35;13.40;;;3.35;;
25365;SDS011;13315;48.274;-1.900;2023-03-23T13:39:02;16.75;;;3.35;;
25365;SDS011;13315;48.274;-1.900;2023-03-23T13:41:29;16.83;;;3.78;;
25365;SDS011;13315;48.274;-1.900;2023-03-23T13:46:40;19.70;;;4.45;;
25365;SDS011;13315;48.274;-1.900;2023-03-23T13:51:46;15.15;;;3.22;;
25365;SDS011;13315;48.274;-1.900;2023-03-23T13:54:19;16.92;;;3.35;;
25365;SDS011;13315;48.274;-1.900;2023-03-23T13:56:53;16.27;;;3.67;;
25365;SDS011;13315;48.274;-1.900;2023-03-23T14:01:52;15.70;;;3.13;;
25365;SDS011;13315;48.274;-1.900;2023-03-23T14:04:18;13.30;;;3.42;;
25365;SDS011;13315;48.274;-1.900;2023-03-23T14:06:46;10.35;;;3.08;;
25365;SDS011;13315;48.274;-1.900;2023-03-23T14:14:41;10.02;;;3.10;;
25365;SDS011;13315;48.274;-1.900;2023-03-23T14:17:24;15.30;;;2.80;;
25365;SDS011;13315;48.274;-1.900;2023-03-23T14:19:54;13.18;;;2.78;;
25365;SDS011;13315;48.274;-1.900;2023-03-23T14:22:24;8.27;;;2.67;;
25365;SDS011;13315;48.274;-1.900;2023-03-23T14:24:52;14.57;;;3.15;;
25365;SDS011;13315;48.274;-1.900;2023-03-23T14:27:19;15.38;;;3.67;;
25365;SDS011;13315;48.274;-1.900;2023-03-23T14:29:46;13.35;;;3.30;;
25365;SDS011;13315;48.274;-1.900;2023-03-23T14:32:22;10.05;;;3.10;;
25365;SDS011;13315;48.274;-1.900;2023-03-23T14:34:51;18.98;;;3.72;;
25365;SDS011;13315;48.274;-1.900;2023-03-23T14:37:17;12.13;;;2.97;;
25365;SDS011;13315;48.274;-1.900;2023-03-23T14:39:44;12.32;;;3.85;;
25365;SDS011;13315;48.274;-1.900;2023-03-23T14:42:11;13.07;;;3.17;;
25365;SDS011;13315;48.274;-1.900;2023-03-23T14:44:40;14.57;;;3.55;;
25365;SDS011;13315;48.274;-1.900;2023-03-23T14:47:16;7.70;;;3.47;;
25365;SDS011;13315;48.274;-1.900;2023-03-23T14:49:44;16.33;;;3.60;;
25365;SDS011;13315;48.274;-1.900;2023-03-23T14:54:36;8.15;;;2.90;;
25365;SDS011;13315;48.274;-1.900;2023-03-23T14:59:45;5.32;;;3.22;;
25365;SDS011;13315;48.274;-1.900;2023-03-23T15:02:12;4.45;;;2.67;;
25365;SDS011;13315;48.274;-1.900;2023-03-23T15:04:40;5.15;;;2.90;;
25365;SDS011;13315;48.274;-1.900;2023-03-23T15:07:08;6.80;;;3.08;;
25365;SDS011;13315;48.274;-1.900;2023-03-23T15:09:34;15.75;;;4.38;;
25365;SDS011;13315;48.274;-1.900;2023-03-23T15:12:04;9.32;;;3.83;;
25365;SDS011;13315;48.274;-1.900;2023-03-23T15:14:32;10.77;;;4.43;;
25365;SDS011;13315;48.274;-1.900;2023-03-23T15:16:59;8.20;;;3.60;;
25365;SDS011;13315;48.274;-1.900;2023-03-23T15:19:27;6.25;;;3.33;;
25365;SDS011;13315;48.274;-1.900;2023-03-23T15:21:55;6.03;;;3.60;;
25365;SDS011;13315;48.274;-1.900;2023-03-23T15:24:31;4.72;;;3.53;;
25365;SDS011;13315;48.274;-1.900;2023-03-23T15:27:44;6.35;;;3.83;;
25365;SDS011;13315;48.274;-1.900;2023-03-23T15:32:23;6.28;;;4.10;;
25365;SDS011;13315;48.274;-1.900;2023-03-23T15:34:50;8.15;;;5.00;;
25365;SDS011;13315;48.274;-1.900;2023-03-23T15:37:19;5.03;;;4.55;;
25365;SDS011;13315;48.274;-1.900;2023-03-23T15:39:46;5.85;;;5.03;;
25365;SDS011;13315;48.274;-1.900;2023-03-23T15:42:22;6.22;;;4.93;;
25365;SDS011;13315;48.274;-1.900;2023-03-23T15:47:33;5.85;;;5.35;;
25365;SDS011;13315;48.274;-1.900;2023-03-23T15:50:10;5.03;;;4.63;;
25365;SDS011;13315;48.274;-1.900;2023-03-23T15:52:37;7.63;;;4.80;;
25365;SDS011;13315;48.274;-1.900;2023-03-23T15:55:14;8.50;;;5.10;;
25365;SDS011;13315;48.274;-1.900;2023-03-23T15:57:43;5.32;;;4.80;;
25365;SDS011;13315;48.274;-1.900;2023-03-23T16:00:10;5.72;;;5.22;;
25365;SDS011;13315;48.274;-1.900;2023-03-23T16:02:36;7.88;;;4.47;;
25365;SDS011;13315;48.274;-1.900;2023-03-23T16:05:02;5.85;;;4.95;;
25365;SDS011;13315;48.274;-1.900;2023-03-23T16:07:28;5.43;;;5.00;;
25365;SDS011;13315;48.274;-1.900;2023-03-23T16:09:55;5.47;;;4.32;;
25365;SDS011;13315;48.274;-1.900;2023-03-23T16:12:21;5.35;;;4.60;;
25365;SDS011;13315;48.274;-1.900;2023-03-23T16:14:47;5.05;;;4.65;;
25365;SDS011;13315;48.274;-1.900;2023-03-23T16:17:14;5.63;;;4.78;;
25365;SDS011;13315;48.274;-1.900;2023-03-23T16:19:41;6.90;;;6.10;;
25365;SDS011;13315;48.274;-1.900;2023-03-23T16:22:07;6.22;;;5.63;;
25365;SDS011;13315;48.274;-1.900;2023-03-23T16:24:34;6.13;;;5.72;;
25365;SDS011;13315;48.274;-1.900;2023-03-23T16:27:00;6.47;;;5.90;;
25365;SDS011;13315;48.274;-1.900;2023-03-23T16:29:26;8.18;;;6.35;;
25365;SDS011;13315;48.274;-1.900;2023-03-23T16:31:52;6.78;;;6.07;;
25365;SDS011;13315;48.274;-1.900;2023-03-23T16:34:18;6.45;;;5.65;;
25365;SDS011;13315;48.274;-1.900;2023-03-23T16:36:44;5.93;;;5.40;;
25365;SDS011;13315;48.274;-1.900;2023-03-23T16:39:10;5.63;;;5.25;;